sensor_id;sensor_type;location;lat;lon;timestamp;temperature;humidity
70830;SHT30;58451;51.550;7.208;2023-08-06T00:00:26;16.09;82.95
70830;SHT30;58451;51.550;7.208;2023-08-06T00:01:59;16.09;82.93
70830;SHT30;58451;51.550;7.208;2023-08-06T00:03:30;16.10;82.93
70830;SHT30;58451;51.550;7.208;2023-08-06T00:05:02;16.10;82.90
70830;SHT30;58451;51.550;7.208;2023-08-06T00:06:35;16.10;82.95
70830;SHT30;58451;51.550;7.208;2023-08-06T00:08:06;16.11;82.95
70830;SHT30;58451;51.550;7.208;2023-08-06T00:09:38;16.11;82.95
70830;SHT30;58451;51.550;7.208;2023-08-06T00:11:10;16.11;82.98
70830;SHT30;58451;51.550;7.208;2023-08-06T00:12:42;16.12;83.03
70830;SHT30;58451;51.550;7.208;2023-08-06T00:14:15;16.11;83.13
70830;SHT30;58451;51.550;7.208;2023-08-06T00:15:48;16.09;83.17
70830;SHT30;58451;51.550;7.208;2023-08-06T00:17:20;16.09;83.22
70830;SHT30;58451;51.550;7.208;2023-08-06T00:18:52;16.09;83.22
70830;SHT30;58451;51.550;7.208;2023-08-06T00:20:24;16.10;83.22
70830;SHT30;58451;51.550;7.208;2023-08-06T00:21:56;16.09;83.25
70830;SHT30;58451;51.550;7.208;2023-08-06T00:23:27;16.08;83.30
70830;SHT30;58451;51.550;7.208;2023-08-06T00:24:59;16.08;83.25
70830;SHT30;58451;51.550;7.208;2023-08-06T00:26:31;16.07;83.27
70830;SHT30;58451;51.550;7.208;2023-08-06T00:28:03;16.08;83.28
70830;SHT30;58451;51.550;7.208;2023-08-06T00:29:35;16.08;83.28
70830;SHT30;58451;51.550;7.208;2023-08-06T00:31:07;16.07;83.37
70830;SHT30;58451;51.550;7.208;2023-08-06T00:32:39;16.08;83.27
70830;SHT30;58451;51.550;7.208;2023-08-06T00:34:11;16.09;83.23
70830;SHT30;58451;51.550;7.208;2023-08-06T00:35:42;16.08;83.33
70830;SHT30;58451;51.550;7.208;2023-08-06T00:37:15;16.09;83.33
70830;SHT30;58451;51.550;7.208;2023-08-06T00:38:50;16.09;83.23
70830;SHT30;58451;51.550;7.208;2023-08-06T00:40:22;16.10;83.27
70830;SHT30;58451;51.550;7.208;2023-08-06T00:41:54;16.12;83.30
70830;SHT30;58451;51.550;7.208;2023-08-06T00:43:26;16.10;83.25
70830;SHT30;58451;51.550;7.208;2023-08-06T00:44:57;16.11;83.30
70830;SHT30;58451;51.550;7.208;2023-08-06T00:46:29;16.11;83.35
70830;SHT30;58451;51.550;7.208;2023-08-06T00:48:03;16.10;83.35
70830;SHT30;58451;51.550;7.208;2023-08-06T00:49:38;16.11;83.30
70830;SHT30;58451;51.550;7.208;2023-08-06T00:51:10;16.11;83.28
70830;SHT30;58451;51.550;7.208;2023-08-06T00:52:43;16.11;83.33
70830;SHT30;58451;51.550;7.208;2023-08-06T00:54:15;16.10;83.30
70830;SHT30;58451;51.550;7.208;2023-08-06T00:55:47;16.11;83.37
70830;SHT30;58451;51.550;7.208;2023-08-06T00:57:20;16.10;83.45
70830;SHT30;58451;51.550;7.208;2023-08-06T00:58:56;16.07;83.38
70830;SHT30;58451;51.550;7.208;2023-08-06T01:00:28;16.07;83.47
70830;SHT30;58451;51.550;7.208;2023-08-06T01:02:01;16.05;83.47
70830;SHT30;58451;51.550;7.208;2023-08-06T01:03:33;16.04;83.47
70830;SHT30;58451;51.550;7.208;2023-08-06T01:05:05;16.03;83.48
70830;SHT30;58451;51.550;7.208;2023-08-06T01:06:52;16.01;83.55
70830;SHT30;58451;51.550;7.208;2023-08-06T01:08:48;15.99;83.45
70830;SHT30;58451;51.550;7.208;2023-08-06T01:27:47;16.46;83.03
70830;SHT30;58451;51.550;7.208;2023-08-06T01:29:31;16.40;83.00
70830;SHT30;58451;51.550;7.208;2023-08-06T01:31:21;16.34;83.00
70830;SHT30;58451;51.550;7.208;2023-08-06T01:32:58;16.29;82.92
70830;SHT30;58451;51.550;7.208;2023-08-06T01:34:36;16.24;82.93
70830;SHT30;58451;51.550;7.208;2023-08-06T01:36:15;16.21;82.93
70830;SHT30;58451;51.550;7.208;2023-08-06T01:37:49;16.19;82.90
70830;SHT30;58451;51.550;7.208;2023-08-06T01:39:22;16.17;82.85
70830;SHT30;58451;51.550;7.208;2023-08-06T01:40:54;16.13;82.87
70830;SHT30;58451;51.550;7.208;2023-08-06T01:42:26;16.10;82.83
70830;SHT30;58451;51.550;7.208;2023-08-06T01:43:58;16.07;82.82
70830;SHT30;58451;51.550;7.208;2023-08-06T01:45:29;16.04;82.83
70830;SHT30;58451;51.550;7.208;2023-08-06T01:47:01;16.02;82.83
70830;SHT30;58451;51.550;7.208;2023-08-06T01:48:33;16.01;82.90
70830;SHT30;58451;51.550;7.208;2023-08-06T01:50:05;16.00;82.90
70830;SHT30;58451;51.550;7.208;2023-08-06T01:51:38;15.97;82.90
70830;SHT30;58451;51.550;7.208;2023-08-06T01:53:10;15.96;82.92
70830;SHT30;58451;51.550;7.208;2023-08-06T01:54:41;15.95;82.98
70830;SHT30;58451;51.550;7.208;2023-08-06T01:56:14;15.93;83.02
70830;SHT30;58451;51.550;7.208;2023-08-06T01:57:46;15.92;83.07
70830;SHT30;58451;51.550;7.208;2023-08-06T01:59:18;15.92;83.12
70830;SHT30;58451;51.550;7.208;2023-08-06T02:00:50;15.92;83.13
70830;SHT30;58451;51.550;7.208;2023-08-06T02:02:22;15.91;83.12
70830;SHT30;58451;51.550;7.208;2023-08-06T02:03:54;15.91;83.13
70830;SHT30;58451;51.550;7.208;2023-08-06T02:05:26;15.90;83.12
70830;SHT30;58451;51.550;7.208;2023-08-06T02:06:57;15.90;83.17
70830;SHT30;58451;51.550;7.208;2023-08-06T02:08:29;15.90;83.18
70830;SHT30;58451;51.550;7.208;2023-08-06T02:10:01;15.89;83.17
70830;SHT30;58451;51.550;7.208;2023-08-06T02:11:33;15.90;83.15
70830;SHT30;58451;51.550;7.208;2023-08-06T02:13:05;15.90;83.20
70830;SHT30;58451;51.550;7.208;2023-08-06T02:14:37;15.90;83.17
70830;SHT30;58451;51.550;7.208;2023-08-06T02:16:10;15.90;83.20
70830;SHT30;58451;51.550;7.208;2023-08-06T02:17:41;15.90;83.22
70830;SHT30;58451;51.550;7.208;2023-08-06T02:19:13;15.90;83.22
70830;SHT30;58451;51.550;7.208;2023-08-06T02:20:55;15.91;83.20
70830;SHT30;58451;51.550;7.208;2023-08-06T02:22:32;15.92;83.18
70830;SHT30;58451;51.550;7.208;2023-08-06T02:24:04;15.91;83.22
70830;SHT30;58451;51.550;7.208;2023-08-06T02:25:36;15.92;83.22
70830;SHT30;58451;51.550;7.208;2023-08-06T02:27:08;15.92;83.22
70830;SHT30;58451;51.550;7.208;2023-08-06T02:28:40;15.92;83.20
70830;SHT30;58451;51.550;7.208;2023-08-06T02:30:12;15.91;83.22
70830;SHT30;58451;51.550;7.208;2023-08-06T02:31:44;15.92;83.18
70830;SHT30;58451;51.550;7.208;2023-08-06T02:33:16;15.90;83.13
70830;SHT30;58451;51.550;7.208;2023-08-06T02:34:47;15.89;83.17
70830;SHT30;58451;51.550;7.208;2023-08-06T02:36:19;15.87;83.12
70830;SHT30;58451;51.550;7.208;2023-08-06T02:37:51;15.85;83.13
70830;SHT30;58451;51.550;7.208;2023-08-06T02:39:23;15.85;83.13
70830;SHT30;58451;51.550;7.208;2023-08-06T02:40:55;15.83;83.12
70830;SHT30;58451;51.550;7.208;2023-08-06T02:42:27;15.82;83.12
70830;SHT30;58451;51.550;7.208;2023-08-06T02:43:59;15.81;83.10
70830;SHT30;58451;51.550;7.208;2023-08-06T02:45:31;15.80;83.10
70830;SHT30;58451;51.550;7.208;2023-08-06T02:47:03;15.80;83.12
70830;SHT30;58451;51.550;7.208;2023-08-06T02:48:36;15.78;83.10
70830;SHT30;58451;51.550;7.208;2023-08-06T02:50:08;15.77;83.07
70830;SHT30;58451;51.550;7.208;2023-08-06T02:51:41;15.77;83.02
70830;SHT30;58451;51.550;7.208;2023-08-06T02:53:13;15.77;83.00
70830;SHT30;58451;51.550;7.208;2023-08-06T02:54:44;15.77;83.00
70830;SHT30;58451;51.550;7.208;2023-08-06T02:56:17;15.77;82.97
70830;SHT30;58451;51.550;7.208;2023-08-06T02:58:07;15.75;82.92
70830;SHT30;58451;51.550;7.208;2023-08-06T02:59:41;15.75;82.92
70830;SHT30;58451;51.550;7.208;2023-08-06T03:01:25;15.74;82.87
70830;SHT30;58451;51.550;7.208;2023-08-06T03:03:01;15.73;82.85
70830;SHT30;58451;51.550;7.208;2023-08-06T03:04:41;15.71;82.83
70830;SHT30;58451;51.550;7.208;2023-08-06T03:06:14;15.69;82.82
70830;SHT30;58451;51.550;7.208;2023-08-06T03:07:49;15.68;82.88
70830;SHT30;58451;51.550;7.208;2023-08-06T03:09:26;15.65;82.92
70830;SHT30;58451;51.550;7.208;2023-08-06T03:10:58;15.63;82.93
70830;SHT30;58451;51.550;7.208;2023-08-06T03:12:30;15.61;82.93
70830;SHT30;58451;51.550;7.208;2023-08-06T03:14:02;15.58;82.95
70830;SHT30;58451;51.550;7.208;2023-08-06T03:15:34;15.54;83.02
70830;SHT30;58451;51.550;7.208;2023-08-06T03:17:06;15.51;83.02
70830;SHT30;58451;51.550;7.208;2023-08-06T03:18:39;15.48;83.03
70830;SHT30;58451;51.550;7.208;2023-08-06T03:20:11;15.42;83.03
70830;SHT30;58451;51.550;7.208;2023-08-06T03:21:43;15.40;83.07
70830;SHT30;58451;51.550;7.208;2023-08-06T03:23:16;15.37;83.12
70830;SHT30;58451;51.550;7.208;2023-08-06T03:24:52;15.32;83.10
70830;SHT30;58451;51.550;7.208;2023-08-06T03:26:25;15.28;83.08
70830;SHT30;58451;51.550;7.208;2023-08-06T03:27:57;15.24;83.12
70830;SHT30;58451;51.550;7.208;2023-08-06T03:29:29;15.22;83.13
70830;SHT30;58451;51.550;7.208;2023-08-06T03:31:03;15.19;83.13
70830;SHT30;58451;51.550;7.208;2023-08-06T03:32:42;15.15;83.18
70830;SHT30;58451;51.550;7.208;2023-08-06T03:34:14;15.11;83.20
70830;SHT30;58451;51.550;7.208;2023-08-06T03:35:46;15.08;83.20
70830;SHT30;58451;51.550;7.208;2023-08-06T03:37:18;15.06;83.22
70830;SHT30;58451;51.550;7.208;2023-08-06T03:38:50;15.04;83.23
70830;SHT30;58451;51.550;7.208;2023-08-06T03:40:22;15.00;83.23
70830;SHT30;58451;51.550;7.208;2023-08-06T03:41:54;14.96;83.28
70830;SHT30;58451;51.550;7.208;2023-08-06T03:43:26;14.94;83.30
70830;SHT30;58451;51.550;7.208;2023-08-06T03:44:58;14.91;83.32
70830;SHT30;58451;51.550;7.208;2023-08-06T03:46:30;14.88;83.35
70830;SHT30;58451;51.550;7.208;2023-08-06T03:48:07;14.85;83.33
70830;SHT30;58451;51.550;7.208;2023-08-06T03:49:39;14.84;83.38
70830;SHT30;58451;51.550;7.208;2023-08-06T03:51:11;14.81;83.42
70830;SHT30;58451;51.550;7.208;2023-08-06T03:52:43;14.79;83.45
70830;SHT30;58451;51.550;7.208;2023-08-06T03:54:15;14.79;83.52
70830;SHT30;58451;51.550;7.208;2023-08-06T03:55:47;14.75;83.52
70830;SHT30;58451;51.550;7.208;2023-08-06T03:57:19;14.74;83.55
70830;SHT30;58451;51.550;7.208;2023-08-06T03:58:50;14.72;83.57
70830;SHT30;58451;51.550;7.208;2023-08-06T04:00:22;14.71;83.60
70830;SHT30;58451;51.550;7.208;2023-08-06T04:01:54;14.71;83.65
70830;SHT30;58451;51.550;7.208;2023-08-06T04:03:27;14.71;83.67
70830;SHT30;58451;51.550;7.208;2023-08-06T04:05:00;14.71;83.70
70830;SHT30;58451;51.550;7.208;2023-08-06T04:06:32;14.71;83.72
70830;SHT30;58451;51.550;7.208;2023-08-06T04:08:04;14.72;83.75
70830;SHT30;58451;51.550;7.208;2023-08-06T04:09:50;14.72;83.77
70830;SHT30;58451;51.550;7.208;2023-08-06T04:11:30;14.71;83.73
70830;SHT30;58451;51.550;7.208;2023-08-06T04:13:02;14.71;83.78
70830;SHT30;58451;51.550;7.208;2023-08-06T04:14:34;14.73;83.85
70830;SHT30;58451;51.550;7.208;2023-08-06T04:16:05;14.73;83.87
70830;SHT30;58451;51.550;7.208;2023-08-06T04:17:37;14.75;83.87
70830;SHT30;58451;51.550;7.208;2023-08-06T04:19:09;14.77;83.90
70830;SHT30;58451;51.550;7.208;2023-08-06T04:20:47;14.78;83.95
70830;SHT30;58451;51.550;7.208;2023-08-06T04:22:21;14.81;83.90
70830;SHT30;58451;51.550;7.208;2023-08-06T04:23:53;14.81;83.95
70830;SHT30;58451;51.550;7.208;2023-08-06T04:25:25;14.84;83.98
70830;SHT30;58451;51.550;7.208;2023-08-06T04:26:57;14.85;84.00
70830;SHT30;58451;51.550;7.208;2023-08-06T04:28:29;14.87;84.03
70830;SHT30;58451;51.550;7.208;2023-08-06T04:30:02;14.90;84.05
70830;SHT30;58451;51.550;7.208;2023-08-06T04:31:34;14.91;84.05
70830;SHT30;58451;51.550;7.208;2023-08-06T04:33:06;14.94;84.05
70830;SHT30;58451;51.550;7.208;2023-08-06T04:34:38;14.94;84.05
70830;SHT30;58451;51.550;7.208;2023-08-06T04:36:10;14.95;84.03
70830;SHT30;58451;51.550;7.208;2023-08-06T04:37:43;14.97;84.07
70830;SHT30;58451;51.550;7.208;2023-08-06T04:39:15;14.99;84.07
70830;SHT30;58451;51.550;7.208;2023-08-06T04:40:47;15.01;84.08
70830;SHT30;58451;51.550;7.208;2023-08-06T04:42:19;15.04;84.17
70830;SHT30;58451;51.550;7.208;2023-08-06T04:43:51;15.06;84.15
70830;SHT30;58451;51.550;7.208;2023-08-06T04:45:22;15.09;84.15
70830;SHT30;58451;51.550;7.208;2023-08-06T04:46:55;15.14;84.15
70830;SHT30;58451;51.550;7.208;2023-08-06T04:48:27;15.16;84.22
70830;SHT30;58451;51.550;7.208;2023-08-06T04:49:59;15.18;84.22
70830;SHT30;58451;51.550;7.208;2023-08-06T04:51:31;15.21;84.17
70830;SHT30;58451;51.550;7.208;2023-08-06T04:53:03;15.22;84.15
70830;SHT30;58451;51.550;7.208;2023-08-06T04:54:34;15.24;84.15
70830;SHT30;58451;51.550;7.208;2023-08-06T04:56:06;15.27;84.13
70830;SHT30;58451;51.550;7.208;2023-08-06T04:57:38;15.30;84.12
70830;SHT30;58451;51.550;7.208;2023-08-06T04:59:10;15.32;84.07
70830;SHT30;58451;51.550;7.208;2023-08-06T05:00:41;15.37;84.08
70830;SHT30;58451;51.550;7.208;2023-08-06T05:02:13;15.45;84.05
70830;SHT30;58451;51.550;7.208;2023-08-06T05:03:46;15.49;84.02
70830;SHT30;58451;51.550;7.208;2023-08-06T05:05:19;15.49;84.05
70830;SHT30;58451;51.550;7.208;2023-08-06T05:06:51;15.48;84.03
70830;SHT30;58451;51.550;7.208;2023-08-06T05:08:23;15.50;84.07
70830;SHT30;58451;51.550;7.208;2023-08-06T05:09:54;15.52;84.05
70830;SHT30;58451;51.550;7.208;2023-08-06T05:11:26;15.55;84.00
70830;SHT30;58451;51.550;7.208;2023-08-06T05:12:58;15.60;83.97
70830;SHT30;58451;51.550;7.208;2023-08-06T05:14:30;15.66;83.95
70830;SHT30;58451;51.550;7.208;2023-08-06T05:16:02;15.72;83.92
70830;SHT30;58451;51.550;7.208;2023-08-06T05:17:34;15.77;83.85
70830;SHT30;58451;51.550;7.208;2023-08-06T05:19:06;15.80;83.80
70830;SHT30;58451;51.550;7.208;2023-08-06T05:20:38;15.88;83.75
70830;SHT30;58451;51.550;7.208;2023-08-06T05:22:12;15.95;83.70
70830;SHT30;58451;51.550;7.208;2023-08-06T05:23:43;16.01;83.67
70830;SHT30;58451;51.550;7.208;2023-08-06T05:25:15;16.06;83.62
70830;SHT30;58451;51.550;7.208;2023-08-06T05:26:47;16.10;83.55
70830;SHT30;58451;51.550;7.208;2023-08-06T05:28:19;16.15;83.52
70830;SHT30;58451;51.550;7.208;2023-08-06T05:29:54;16.20;83.47
70830;SHT30;58451;51.550;7.208;2023-08-06T05:31:30;16.25;83.35
70830;SHT30;58451;51.550;7.208;2023-08-06T05:33:02;16.30;83.32
70830;SHT30;58451;51.550;7.208;2023-08-06T05:34:34;16.36;83.27
70830;SHT30;58451;51.550;7.208;2023-08-06T05:36:05;16.40;83.18
70830;SHT30;58451;51.550;7.208;2023-08-06T05:37:37;16.46;83.12
70830;SHT30;58451;51.550;7.208;2023-08-06T05:39:09;16.50;83.02
70830;SHT30;58451;51.550;7.208;2023-08-06T05:40:41;16.55;82.92
70830;SHT30;58451;51.550;7.208;2023-08-06T05:42:13;16.64;82.82
70830;SHT30;58451;51.550;7.208;2023-08-06T05:43:45;16.73;82.68
70830;SHT30;58451;51.550;7.208;2023-08-06T05:45:17;16.80;82.62
70830;SHT30;58451;51.550;7.208;2023-08-06T05:46:49;16.86;82.55
70830;SHT30;58451;51.550;7.208;2023-08-06T05:48:21;16.92;82.50
70830;SHT30;58451;51.550;7.208;2023-08-06T05:49:55;16.98;82.40
70830;SHT30;58451;51.550;7.208;2023-08-06T05:51:27;17.04;82.30
70830;SHT30;58451;51.550;7.208;2023-08-06T05:53:00;17.07;82.18
70830;SHT30;58451;51.550;7.208;2023-08-06T05:54:32;17.13;82.08
70830;SHT30;58451;51.550;7.208;2023-08-06T05:56:04;17.16;81.93
70830;SHT30;58451;51.550;7.208;2023-08-06T05:57:36;17.17;81.83
70830;SHT30;58451;51.550;7.208;2023-08-06T05:59:07;17.19;81.77
70830;SHT30;58451;51.550;7.208;2023-08-06T06:00:39;17.21;81.67
70830;SHT30;58451;51.550;7.208;2023-08-06T06:02:11;17.25;81.60
70830;SHT30;58451;51.550;7.208;2023-08-06T06:03:43;17.29;81.50
70830;SHT30;58451;51.550;7.208;2023-08-06T06:05:15;17.32;81.40
70830;SHT30;58451;51.550;7.208;2023-08-06T06:06:47;17.35;81.30
70830;SHT30;58451;51.550;7.208;2023-08-06T06:08:19;17.39;81.20
70830;SHT30;58451;51.550;7.208;2023-08-06T06:09:50;17.44;81.10
70830;SHT30;58451;51.550;7.208;2023-08-06T06:11:22;17.49;80.98
70830;SHT30;58451;51.550;7.208;2023-08-06T06:12:54;17.56;80.90
70830;SHT30;58451;51.550;7.208;2023-08-06T06:14:26;17.63;80.80
70830;SHT30;58451;51.550;7.208;2023-08-06T06:15:58;17.73;80.75
70830;SHT30;58451;51.550;7.208;2023-08-06T06:17:30;17.83;80.58
70830;SHT30;58451;51.550;7.208;2023-08-06T06:19:02;17.93;80.50
70830;SHT30;58451;51.550;7.208;2023-08-06T06:20:33;18.03;80.42
70830;SHT30;58451;51.550;7.208;2023-08-06T06:22:05;18.17;80.23
70830;SHT30;58451;51.550;7.208;2023-08-06T06:23:37;18.28;80.10
70830;SHT30;58451;51.550;7.208;2023-08-06T06:25:09;18.37;80.00
70830;SHT30;58451;51.550;7.208;2023-08-06T06:26:41;18.47;79.87
70830;SHT30;58451;51.550;7.208;2023-08-06T06:28:13;18.55;79.57
70830;SHT30;58451;51.550;7.208;2023-08-06T06:29:45;18.63;79.28
70830;SHT30;58451;51.550;7.208;2023-08-06T06:31:17;18.69;78.80
70830;SHT30;58451;51.550;7.208;2023-08-06T06:32:49;18.72;78.72
70830;SHT30;58451;51.550;7.208;2023-08-06T06:34:21;18.80;78.75
70830;SHT30;58451;51.550;7.208;2023-08-06T06:35:53;18.91;78.62
70830;SHT30;58451;51.550;7.208;2023-08-06T06:37:25;19.02;78.40
70830;SHT30;58451;51.550;7.208;2023-08-06T06:38:57;19.10;77.68
70830;SHT30;58451;51.550;7.208;2023-08-06T06:40:28;19.18;76.77
70830;SHT30;58451;51.550;7.208;2023-08-06T06:42:00;19.28;77.10
70830;SHT30;58451;51.550;7.208;2023-08-06T06:43:35;19.40;77.00
70830;SHT30;58451;51.550;7.208;2023-08-06T06:45:09;19.53;76.70
70830;SHT30;58451;51.550;7.208;2023-08-06T06:46:41;19.67;76.40
70830;SHT30;58451;51.550;7.208;2023-08-06T06:48:13;19.80;76.57
70830;SHT30;58451;51.550;7.208;2023-08-06T06:49:44;19.96;75.98
70830;SHT30;58451;51.550;7.208;2023-08-06T06:51:16;20.13;75.40
70830;SHT30;58451;51.550;7.208;2023-08-06T06:52:48;20.24;74.23
70830;SHT30;58451;51.550;7.208;2023-08-06T06:54:20;20.32;74.33
70830;SHT30;58451;51.550;7.208;2023-08-06T06:55:51;20.40;73.57
70830;SHT30;58451;51.550;7.208;2023-08-06T06:57:23;20.45;73.17
70830;SHT30;58451;51.550;7.208;2023-08-06T06:58:55;20.38;72.50
70830;SHT30;58451;51.550;7.208;2023-08-06T07:00:27;20.31;72.67
70830;SHT30;58451;51.550;7.208;2023-08-06T07:01:59;20.36;72.80
70830;SHT30;58451;51.550;7.208;2023-08-06T07:03:31;20.41;73.10
70830;SHT30;58451;51.550;7.208;2023-08-06T07:05:03;20.48;72.57
70830;SHT30;58451;51.550;7.208;2023-08-06T07:06:35;20.59;72.45
70830;SHT30;58451;51.550;7.208;2023-08-06T07:08:07;20.66;70.50
70830;SHT30;58451;51.550;7.208;2023-08-06T07:09:38;20.72;70.28
70830;SHT30;58451;51.550;7.208;2023-08-06T07:11:10;20.77;70.88
70830;SHT30;58451;51.550;7.208;2023-08-06T07:12:43;20.81;71.15
70830;SHT30;58451;51.550;7.208;2023-08-06T07:14:15;20.77;71.12
70830;SHT30;58451;51.550;7.208;2023-08-06T07:15:47;20.77;71.05
70830;SHT30;58451;51.550;7.208;2023-08-06T07:17:19;20.76;71.00
70830;SHT30;58451;51.550;7.208;2023-08-06T07:18:51;20.74;70.02
70830;SHT30;58451;51.550;7.208;2023-08-06T07:20:24;20.74;70.07
70830;SHT30;58451;51.550;7.208;2023-08-06T07:21:56;20.78;70.22
70830;SHT30;58451;51.550;7.208;2023-08-06T07:23:28;20.84;69.88
70830;SHT30;58451;51.550;7.208;2023-08-06T07:25:00;20.91;70.12
70830;SHT30;58451;51.550;7.208;2023-08-06T07:26:32;20.97;70.00
70830;SHT30;58451;51.550;7.208;2023-08-06T07:28:04;21.03;69.38
70830;SHT30;58451;51.550;7.208;2023-08-06T07:29:36;21.09;69.78
70830;SHT30;58451;51.550;7.208;2023-08-06T07:31:08;21.11;69.97
70830;SHT30;58451;51.550;7.208;2023-08-06T07:32:39;21.11;69.53
70830;SHT30;58451;51.550;7.208;2023-08-06T07:34:11;21.08;69.50
70830;SHT30;58451;51.550;7.208;2023-08-06T07:35:43;21.01;68.77
70830;SHT30;58451;51.550;7.208;2023-08-06T07:37:15;20.87;68.65
70830;SHT30;58451;51.550;7.208;2023-08-06T07:38:47;20.76;68.78
70830;SHT30;58451;51.550;7.208;2023-08-06T07:40:22;20.65;68.45
70830;SHT30;58451;51.550;7.208;2023-08-06T07:41:54;20.55;68.15
70830;SHT30;58451;51.550;7.208;2023-08-06T07:43:26;20.47;68.13
70830;SHT30;58451;51.550;7.208;2023-08-06T07:44:58;20.41;68.63
70830;SHT30;58451;51.550;7.208;2023-08-06T07:46:31;20.37;68.88
70830;SHT30;58451;51.550;7.208;2023-08-06T07:48:03;20.38;68.88
70830;SHT30;58451;51.550;7.208;2023-08-06T07:49:36;20.39;69.07
70830;SHT30;58451;51.550;7.208;2023-08-06T07:51:07;20.43;69.00
70830;SHT30;58451;51.550;7.208;2023-08-06T07:52:39;20.48;68.78
70830;SHT30;58451;51.550;7.208;2023-08-06T07:54:11;20.52;68.93
70830;SHT30;58451;51.550;7.208;2023-08-06T07:55:47;20.64;69.07
70830;SHT30;58451;51.550;7.208;2023-08-06T07:57:21;20.79;69.15
70830;SHT30;58451;51.550;7.208;2023-08-06T07:58:54;20.93;67.77
70830;SHT30;58451;51.550;7.208;2023-08-06T08:00:26;21.01;67.03
70830;SHT30;58451;51.550;7.208;2023-08-06T08:01:58;21.14;67.78
70830;SHT30;58451;51.550;7.208;2023-08-06T08:03:30;21.27;68.05
70830;SHT30;58451;51.550;7.208;2023-08-06T08:05:02;21.37;68.10
70830;SHT30;58451;51.550;7.208;2023-08-06T08:06:34;21.47;67.85
70830;SHT30;58451;51.550;7.208;2023-08-06T08:08:06;21.56;67.73
70830;SHT30;58451;51.550;7.208;2023-08-06T08:09:38;21.59;66.17
70830;SHT30;58451;51.550;7.208;2023-08-06T08:11:10;21.63;66.62
70830;SHT30;58451;51.550;7.208;2023-08-06T08:12:42;21.65;67.03
70830;SHT30;58451;51.550;7.208;2023-08-06T08:14:14;21.60;66.92
70830;SHT30;58451;51.550;7.208;2023-08-06T08:15:46;21.58;66.97
70830;SHT30;58451;51.550;7.208;2023-08-06T08:17:18;21.61;66.70
70830;SHT30;58451;51.550;7.208;2023-08-06T08:18:50;21.56;66.13
70830;SHT30;58451;51.550;7.208;2023-08-06T08:20:25;21.53;66.32
70830;SHT30;58451;51.550;7.208;2023-08-06T08:22:03;21.51;66.58
70830;SHT30;58451;51.550;7.208;2023-08-06T08:23:35;21.45;66.75
70830;SHT30;58451;51.550;7.208;2023-08-06T08:25:14;21.46;66.78
70830;SHT30;58451;51.550;7.208;2023-08-06T08:27:02;21.37;66.47
70830;SHT30;58451;51.550;7.208;2023-08-06T08:28:40;21.26;66.53
70830;SHT30;58451;51.550;7.208;2023-08-06T08:30:12;21.19;66.58
70830;SHT30;58451;51.550;7.208;2023-08-06T08:31:44;21.14;66.68
70830;SHT30;58451;51.550;7.208;2023-08-06T08:33:30;21.09;66.28
70830;SHT30;58451;51.550;7.208;2023-08-06T08:35:02;21.05;66.58
70830;SHT30;58451;51.550;7.208;2023-08-06T08:36:34;21.01;66.32
70830;SHT30;58451;51.550;7.208;2023-08-06T08:38:06;20.97;66.25
70830;SHT30;58451;51.550;7.208;2023-08-06T08:39:37;20.90;66.17
70830;SHT30;58451;51.550;7.208;2023-08-06T08:41:09;20.85;66.50
70830;SHT30;58451;51.550;7.208;2023-08-06T08:42:42;20.83;66.47
70830;SHT30;58451;51.550;7.208;2023-08-06T08:44:15;20.76;66.55
70830;SHT30;58451;51.550;7.208;2023-08-06T08:45:52;20.73;66.72
70830;SHT30;58451;51.550;7.208;2023-08-06T08:47:31;20.66;66.70
70830;SHT30;58451;51.550;7.208;2023-08-06T08:49:04;20.64;67.00
70830;SHT30;58451;51.550;7.208;2023-08-06T08:50:36;20.61;67.12
70830;SHT30;58451;51.550;7.208;2023-08-06T08:52:08;20.54;66.98
70830;SHT30;58451;51.550;7.208;2023-08-06T08:53:44;20.49;67.33
70830;SHT30;58451;51.550;7.208;2023-08-06T08:55:21;20.43;67.42
70830;SHT30;58451;51.550;7.208;2023-08-06T08:56:54;20.38;67.52
70830;SHT30;58451;51.550;7.208;2023-08-06T08:58:26;20.27;67.85
70830;SHT30;58451;51.550;7.208;2023-08-06T08:59:58;20.23;68.17
70830;SHT30;58451;51.550;7.208;2023-08-06T09:01:30;20.21;68.35
70830;SHT30;58451;51.550;7.208;2023-08-06T09:03:03;20.18;68.52
70830;SHT30;58451;51.550;7.208;2023-08-06T09:04:38;20.17;68.73
70830;SHT30;58451;51.550;7.208;2023-08-06T09:06:12;20.21;68.85
70830;SHT30;58451;51.550;7.208;2023-08-06T09:07:47;20.21;68.90
70830;SHT30;58451;51.550;7.208;2023-08-06T09:09:28;20.23;68.90
70830;SHT30;58451;51.550;7.208;2023-08-06T09:11:05;20.23;68.85
70830;SHT30;58451;51.550;7.208;2023-08-06T09:12:44;20.24;68.95
70830;SHT30;58451;51.550;7.208;2023-08-06T09:14:18;20.26;68.98
70830;SHT30;58451;51.550;7.208;2023-08-06T09:15:50;20.26;69.10
70830;SHT30;58451;51.550;7.208;2023-08-06T09:17:22;20.32;69.28
70830;SHT30;58451;51.550;7.208;2023-08-06T09:18:54;20.40;69.60
70830;SHT30;58451;51.550;7.208;2023-08-06T09:20:26;20.49;69.60
70830;SHT30;58451;51.550;7.208;2023-08-06T09:21:58;20.56;69.78
70830;SHT30;58451;51.550;7.208;2023-08-06T09:23:30;20.64;69.65
70830;SHT30;58451;51.550;7.208;2023-08-06T09:25:05;20.69;70.07
70830;SHT30;58451;51.550;7.208;2023-08-06T09:26:44;20.77;69.77
70830;SHT30;58451;51.550;7.208;2023-08-06T09:28:16;20.78;69.22
70830;SHT30;58451;51.550;7.208;2023-08-06T09:29:48;20.78;68.93
70830;SHT30;58451;51.550;7.208;2023-08-06T09:31:20;20.77;68.82
70830;SHT30;58451;51.550;7.208;2023-08-06T09:32:52;20.77;68.80
70830;SHT30;58451;51.550;7.208;2023-08-06T09:34:24;20.83;68.75
70830;SHT30;58451;51.550;7.208;2023-08-06T09:35:56;20.86;68.08
70830;SHT30;58451;51.550;7.208;2023-08-06T09:37:35;20.83;68.02
70830;SHT30;58451;51.550;7.208;2023-08-06T09:39:13;20.84;68.12
70830;SHT30;58451;51.550;7.208;2023-08-06T09:40:47;20.86;67.57
70830;SHT30;58451;51.550;7.208;2023-08-06T09:42:19;20.85;67.73
70830;SHT30;58451;51.550;7.208;2023-08-06T09:43:51;20.89;67.38
70830;SHT30;58451;51.550;7.208;2023-08-06T09:45:23;20.92;67.23
70830;SHT30;58451;51.550;7.208;2023-08-06T09:47:02;20.94;67.32
70830;SHT30;58451;51.550;7.208;2023-08-06T09:48:35;21.00;67.17
70830;SHT30;58451;51.550;7.208;2023-08-06T09:50:17;21.08;67.25
70830;SHT30;58451;51.550;7.208;2023-08-06T09:51:51;21.19;66.75
70830;SHT30;58451;51.550;7.208;2023-08-06T09:53:25;21.28;66.57
70830;SHT30;58451;51.550;7.208;2023-08-06T09:54:57;21.38;66.38
70830;SHT30;58451;51.550;7.208;2023-08-06T09:56:30;21.49;66.40
70830;SHT30;58451;51.550;7.208;2023-08-06T09:58:08;21.63;65.88
70830;SHT30;58451;51.550;7.208;2023-08-06T09:59:40;21.73;65.67
70830;SHT30;58451;51.550;7.208;2023-08-06T10:01:14;21.82;65.25
70830;SHT30;58451;51.550;7.208;2023-08-06T10:02:48;21.93;65.45
70830;SHT30;58451;51.550;7.208;2023-08-06T10:04:23;22.08;64.58